FLIGHT DETAILS
Pilot: CFR08DC DAVID Christian Aircraft: AIRBUSA350V1.43 AIR FRANCE Distance: 498NM
Departure FMEE Arrival FMMI Duration 1.23
Validation Validated Type Regular Tail Number F-CFR107
ZFW 163574 Block Fuel/Initial FOB 8,057/0 Flight Fuel 7,112
Passengers 282 Cargo 9800 Alternate FMMT
Departure Time 1400 Cruise Speed Flight Level
Flight Type IFR Aircraft Type A359 Weight Unit Kg
Date 2018-11-25 Pilot Comments Network IVAO
Crashed No Validator Comments Flight Rating 100

 ROUTE
ROUTE UNKIK UA401 TE
REMARKS
 FLIGHT FAILURES
Crashed OK Beacon off & Engine Running OK KIAS Above 250 below 10000 FT OK
Lights OFF below 10000 FT Fail Lights ON above 10000 FT OK Stall OK
Overspeed OK Flight paused OK Refueling OK
Slew detected OK Taxi & Taxi lights off OK Take off & lights off OK
Landing & lights off OK Landed in not planned airport OK Taxi Speed Fail
Wrong altimeter in Take off Fail Wrong altimeter in Landing Fail
 LANDING ANALYSIS
Landing wind 14º/0 kt Landing heading 195
Landing VS: -794.32 ft/min Landing IAS: 147.05 kt
Landing Force G 1.1 G Landing Bank 0.3
Landing Pitch 1.6 Landing Flaps 37
Navigation Lights ON Landing Lights ON
Beacon Lights ON Strobe Lights ON
 FLIGHT MAP
 ALTITUDE CHART
 FLIGHT FINANCIAL REPORT
Cargo:9800 .Price per Cargo Unit:100 980,000.00
Number of PAX:282 .Price per PAX:250 70,500.00
TOTAL 1,050,500.00
 MAIN EVENTS
DATE EVENTIASALTITUDE
2018-11-25 20:42:31 SIM ACARS version 1.4.1076
2018-11-25 20:42:31 BOARDING076
2018-11-25 20:48:43 FLAPS EXTENSION 7 % 076
2018-11-25 20:48:43 FLAPS EXTENSION 10 % 076
2018-11-25 20:48:43 FLAPS EXTENSION 12 % 076
2018-11-25 20:48:43 FLAPS EXTENSION 13 % 076
2018-11-25 20:48:43 FLAPS EXTENSION 15 % 076
2018-11-25 20:48:43 FLAPS EXTENSION 18 % 076
2018-11-25 20:48:43 FLAPS EXTENSION 24 % 076
2018-11-25 20:48:43 FLAPS EXTENSION 27 % 076
2018-11-25 20:48:44 FLAPS EXTENSION 28 % 076
2018-11-25 20:48:44 FLAPS EXTENSION 29 % 076
2018-11-25 20:48:48 FLAPS EXTENSION 33 % 076
2018-11-25 20:48:49 FLAPS EXTENSION 35 % 076
2018-11-25 20:48:49 FLAPS EXTENSION 39 % 076
2018-11-25 20:48:49 FLAPS EXTENSION 42 % 076
2018-11-25 20:48:49 FLAPS EXTENSION 47 % 076
2018-11-25 20:48:49 FLAPS EXTENSION 52 % 076
2018-11-25 20:48:49 FLAPS EXTENSION 53 % 076
2018-11-25 20:48:54 FLAPS EXTENSION 55 % 076
2018-11-25 20:49:21 FLAPS EXTENSION 53 % 076
2018-11-25 20:49:25 FLAPS EXTENSION 55 % 076
2018-11-25 20:49:25 FLAPS EXTENSION 53 % 076
2018-11-25 20:49:34 FLAPS EXTENSION 55 % 076
2018-11-25 20:49:55 FLAPS EXTENSION 53 % 076
2018-11-25 20:49:56 FLAPS EXTENSION 55 % 076
2018-11-25 20:50:18 FLAPS EXTENSION 53 % 076
2018-11-25 20:50:20 FLAPS EXTENSION 55 % 076
2018-11-25 20:50:21 FLAPS EXTENSION 53 % 076
2018-11-25 20:50:24 FLAPS EXTENSION 55 % 076
2018-11-25 20:50:51 STARTING ENGINE 1 076
2018-11-25 20:51:14 FLAPS EXTENSION 53 % 076
2018-11-25 20:51:20 FLAPS EXTENSION 55 % 076
2018-11-25 20:51:21 FLAPS EXTENSION 53 % 076
2018-11-25 20:51:22 FLAPS EXTENSION 55 % 076
2018-11-25 20:51:32 STARTING ENGINE 2 076
2018-11-25 20:51:45 FLAPS EXTENSION 53 % 076
2018-11-25 20:51:46 FLAPS EXTENSION 55 % 076
2018-11-25 20:52:08 FLAPS EXTENSION 53 % 076
2018-11-25 20:52:10 FLAPS EXTENSION 55 % 076
2018-11-25 20:52:18 FLAPS EXTENSION 53 % 076
2018-11-25 20:52:18 FLAPS EXTENSION 55 % 076
2018-11-25 20:52:38 FLAPS EXTENSION 53 % 076
2018-11-25 20:52:46 FLAPS EXTENSION 55 % 076
2018-11-25 20:52:55 FLAPS EXTENSION 53 % 076
2018-11-25 20:52:56 FLAPS EXTENSION 55 % 076
2018-11-25 20:52:56 FLAPS EXTENSION 53 % 076
2018-11-25 20:52:57 FLAPS EXTENSION 55 % 076
2018-11-25 20:53:01 FLAPS EXTENSION 53 % 076
2018-11-25 20:53:06 FLAPS EXTENSION 55 % 076
2018-11-25 20:53:11 FLAPS EXTENSION 53 % 076
2018-11-25 20:53:11 FLAPS EXTENSION 49 % 076
2018-11-25 20:53:11 FLAPS EXTENSION 46 % 076
2018-11-25 20:53:46 FLAPS EXTENSION 45 % 076
2018-11-25 20:53:54 FLAPS EXTENSION 46 % 076
2018-11-25 20:53:59 FLAPS EXTENSION 45 % 076
2018-11-25 20:54:04 FLAPS EXTENSION 46 % 076
2018-11-25 20:54:12 FLAPS EXTENSION 45 % 076
2018-11-25 20:54:25 FLAPS EXTENSION 46 % 076
2018-11-25 20:54:35 FLAPS EXTENSION 45 % 076
2018-11-25 20:54:39 FLAPS EXTENSION 46 % 076
2018-11-25 20:54:52 FLAPS EXTENSION 45 % 076
2018-11-25 20:54:55 FLAPS EXTENSION 46 % 076
2018-11-25 20:55:00 FLAPS EXTENSION 45 % 076
2018-11-25 20:55:07 FLAPS EXTENSION 46 % 176
2018-11-25 20:55:10 FLAPS EXTENSION 45 % 176
2018-11-25 20:55:12 FLAPS EXTENSION 46 % 176
2018-11-25 20:55:22 FLAPS EXTENSION 45 % 176
2018-11-25 20:55:25 FLAPS EXTENSION 46 % 176
2018-11-25 20:55:32 FLAPS EXTENSION 45 % 176
2018-11-25 20:55:38 FLAPS EXTENSION 46 % 176
2018-11-25 20:56:10 FLAPS EXTENSION 45 % 176
2018-11-25 20:56:21 FLAPS EXTENSION 46 % 176
2018-11-25 20:56:30 FLAPS EXTENSION 45 % 176
2018-11-25 20:56:35 FLAPS EXTENSION 46 % 176
2018-11-25 20:56:50 FLAPS EXTENSION 45 % 076
2018-11-25 20:56:54 FLAPS EXTENSION 46 % 176
2018-11-25 20:56:56 FLAPS EXTENSION 44 % 176
2018-11-25 20:56:56 FLAPS EXTENSION 43 % 176
2018-11-25 20:57:34 TAXI TO THE RWY 1076
2018-11-25 21:02:06 ROLLING FOR TAKE OFF4176
2018-11-25 21:02:33 TAKE OFF15779
2018-11-25 21:02:37 GEAR UP168113
2018-11-25 21:03:42 FLAPS EXTENSION 39 % 1932830
2018-11-25 21:03:42 FLAPS EXTENSION 35 % 1932833
2018-11-25 21:03:42 FLAPS EXTENSION 31 % 1932835
2018-11-25 21:03:42 FLAPS EXTENSION 21 % 1932837
2018-11-25 21:03:42 FLAPS EXTENSION 20 % 1942839
2018-11-25 21:03:42 FLAPS EXTENSION 17 % 1942841
2018-11-25 21:03:43 FLAPS EXTENSION 14 % 1942843
2018-11-25 21:03:43 FLAPS EXTENSION 11 % 1942847
2018-11-25 21:03:43 FLAPS EXTENSION 0 % 1942849
2018-11-25 21:03:48 LIGHTS OFF BELOW 10000 ft2002927
2018-11-25 21:19:23 CRUISE29029972
2018-11-25 21:50:03 DESCEND29029965
2018-11-25 21:50:33 CRUISE29029970
2018-11-25 21:56:43 DESCEND28929322
2018-11-25 22:12:43 CRUISE2506717
2018-11-25 22:15:28 FLAPS EXTENSION 2 % 2266605
2018-11-25 22:15:28 FLAPS EXTENSION 10 % 2266605
2018-11-25 22:15:28 FLAPS EXTENSION 13 % 2266605
2018-11-25 22:15:28 FLAPS EXTENSION 14 % 2266604
2018-11-25 22:15:35 FLAPS EXTENSION 15 % 2226567
2018-11-25 22:15:35 FLAPS EXTENSION 16 % 2226566
2018-11-25 22:15:36 FLAPS EXTENSION 18 % 2226560
2018-11-25 22:15:36 FLAPS EXTENSION 19 % 2226558
2018-11-25 22:15:37 FLAPS EXTENSION 20 % 2226555
2018-11-25 22:15:37 FLAPS EXTENSION 22 % 2226554
2018-11-25 22:15:38 FLAPS EXTENSION 24 % 2216537
2018-11-25 22:15:39 FLAPS EXTENSION 28 % 2216536
2018-11-25 22:15:39 FLAPS EXTENSION 30 % 2216535
2018-11-25 22:15:42 FLAPS EXTENSION 36 % 2216496
2018-11-25 22:15:42 FLAPS EXTENSION 40 % 2206494
2018-11-25 22:15:42 FLAPS EXTENSION 43 % 2206493
2018-11-25 22:15:42 FLAPS EXTENSION 44 % 2206492
2018-11-25 22:15:43 FLAPS EXTENSION 45 % 2206490
2018-11-25 22:15:43 FLAPS EXTENSION 48 % 2206489
2018-11-25 22:15:43 FLAPS EXTENSION 49 % 2206486
2018-11-25 22:15:43 DESCEND2206485
2018-11-25 22:16:36 FLAPS EXTENSION 51 % 1985788
2018-11-25 22:16:36 FLAPS EXTENSION 52 % 1985786
2018-11-25 22:16:36 FLAPS EXTENSION 53 % 1985780
2018-11-25 22:17:08 GEAR DOWN1935121
2018-11-25 22:17:13 FLAPS EXTENSION 56 % 1895074
2018-11-25 22:17:13 FLAPS EXTENSION 58 % 1895073
2018-11-25 22:17:13 FLAPS EXTENSION 63 % 1895072
2018-11-25 22:17:13 FLAPS EXTENSION 73 % 1895071
2018-11-25 22:17:13 FLAPS EXTENSION 84 % 1895070
2018-11-25 22:17:14 FLAPS EXTENSION 96 % 1895069
2018-11-25 22:17:14 FLAPS EXTENSION 98 % 1895067
2018-11-25 22:17:14 FLAPS EXTENSION 100 % 1895066
2018-11-25 22:17:23 CRUISE1775003
2018-11-25 22:17:53 DESCEND1584786
2018-11-25 22:18:42 LANDING1474169
2018-11-25 22:19:00 FLAPS EXTENSION 86 % 634167
2018-11-25 22:19:00 FLAPS EXTENSION 62 % 634167
2018-11-25 22:19:00 FLAPS EXTENSION 32 % 624167
2018-11-25 22:19:00 FLAPS EXTENSION 1 % 614167
2018-11-25 22:19:06 TAXI TO THE GATE204167
2018-11-25 22:19:26 TAXI SPEED ABOVE 25 KTS224167
2018-11-25 22:21:16 STOPPING ENGINE 1 04167
2018-11-25 22:21:17 STOPPING ENGINE 2 04167
 ACARS DATA
DATE IASGSALTITUDEFUEL CONSUMED OATFLIGHT STATUS
2018-11-25 20:43:310075614BOARDING
2018-11-25 20:44:3100751114BOARDING
2018-11-25 20:45:3100751714BOARDING
2018-11-25 20:46:3100752214BOARDING
2018-11-25 20:47:3100752814BOARDING
2018-11-25 20:48:3100753314BOARDING
2018-11-25 20:49:3100753914BOARDING
2018-11-25 20:50:3102754514BOARDING
2018-11-25 20:51:3102756114BOARDING
2018-11-25 20:52:31007510314BOARDING
2018-11-25 20:53:31007514714BOARDING
2018-11-25 20:54:31007518614BOARDING
2018-11-25 20:55:31007522314BOARDING
2018-11-25 20:56:31007526014BOARDING
2018-11-25 20:57:31897531114BOARDING
2018-11-25 20:58:31557536514TAXI TO THE RWY
2018-11-25 20:59:3114147541814TAXI TO THE RWY
2018-11-25 21:00:31887545914TAXI TO THE RWY
2018-11-25 21:01:31007549814TAXI TO THE RWY
2018-11-25 21:02:311491537777214TAXI TO THE RWY
2018-11-25 21:03:311962022410115710CLIMBING
2018-11-25 21:04:31242257395514437CLIMBING
2018-11-25 21:05:31249275664117091CLIMBING
2018-11-25 21:06:3125028592441951-3CLIMBING
2018-11-25 21:07:31285333107082177-6CLIMBING
2018-11-25 21:08:31290349129762388-10CLIMBING
2018-11-25 21:09:31289360151042589-14CLIMBING
2018-11-25 21:10:31290371171502778-18CLIMBING
2018-11-25 21:11:31290382191062960-22CLIMBING
2018-11-25 21:12:31290393209623135-26CLIMBING
2018-11-25 21:13:31290403226703302-29CLIMBING
2018-11-25 21:14:31290413243013464-33CLIMBING
2018-11-25 21:15:31290423258603618-36CLIMBING
2018-11-25 21:16:31290433272983766-39CLIMBING
2018-11-25 21:17:31290442286913911-41CLIMBING
2018-11-25 21:18:31290452299514048-44CLIMBING
2018-11-25 21:19:31290451299754133-44CRUISE
2018-11-25 21:20:31290451299804220-44CRUISE
2018-11-25 21:21:31290451299804306-44CRUISE
2018-11-25 21:22:31290451299804393-44CRUISE
2018-11-25 21:23:31290451299804480-44CRUISE
2018-11-25 21:24:31290451299804566-44CRUISE
2018-11-25 21:25:31290451299804653-44CRUISE
2018-11-25 21:26:31290451299804740-44CRUISE
2018-11-25 21:27:31290451299794825-44CRUISE
2018-11-25 21:28:31290451299804911-44CRUISE
2018-11-25 21:29:31290451299804998-44CRUISE
2018-11-25 21:30:31290451299805085-44CRUISE
2018-11-25 21:31:31290451299805172-44CRUISE
2018-11-25 21:32:31290451299805258-44CRUISE
2018-11-25 21:33:31290451299805344-44CRUISE
2018-11-25 21:34:31290450299355427-44CRUISE
2018-11-25 21:35:31290451299805517-44CRUISE
2018-11-25 21:36:31290451299805602-44CRUISE
2018-11-25 21:37:31290451299805689-44CRUISE
2018-11-25 21:38:31290451299805775-44CRUISE
2018-11-25 21:39:31290451299805862-44CRUISE
2018-11-25 21:40:31290451299785948-44CRUISE
2018-11-25 21:41:31290451299806034-44CRUISE
2018-11-25 21:42:31289451299566117-44CRUISE
2018-11-25 21:43:31290451299806204-44CRUISE
2018-11-25 21:44:31290451299806291-44CRUISE
2018-11-25 21:45:31290451299806378-44CRUISE
2018-11-25 21:46:31290451299806465-44CRUISE
2018-11-25 21:47:31290451299806551-44CRUISE
2018-11-25 21:48:31290451299806638-44CRUISE
2018-11-25 21:49:31290451299806725-44CRUISE
2018-11-25 21:50:31290451299686811-44DESCEND
2018-11-25 21:51:31290451299806898-44CRUISE
2018-11-25 21:52:31290451299806986-44CRUISE
2018-11-25 21:53:31290451299807073-44CRUISE
2018-11-25 21:54:31290451299807159-44CRUISE
2018-11-25 21:55:31290451299807243-44CRUISE
2018-11-25 21:56:31287446297237311-43CRUISE
2018-11-25 21:57:31289436278597326-40DESCEND
2018-11-25 21:58:31290425260877341-36DESCEND
2018-11-25 21:59:31289413243787357-33DESCEND
2018-11-25 22:00:31289402226687373-29DESCEND
2018-11-25 22:01:31289392209807390-26DESCEND
2018-11-25 22:02:31289382193127407-23DESCEND
2018-11-25 22:03:31289373176687424-19DESCEND
2018-11-25 22:04:31289364160467440-16DESCEND
2018-11-25 22:05:31289356144537455-13DESCEND
2018-11-25 22:06:31289347128897468-10DESCEND
2018-11-25 22:07:31291341113057480-7DESCEND
2018-11-25 22:08:31277320102097492-5DESCEND
2018-11-25 22:09:3124027799727506-4DESCEND
2018-11-25 22:10:3124928286217518-2DESCEND
2018-11-25 22:11:31249278750375330DESCEND
2018-11-25 22:12:31249275671975701DESCEND
2018-11-25 22:13:31249275671576541CRUISE
2018-11-25 22:14:31249275671577361CRUISE
2018-11-25 22:15:31224246659377751CRUISE
2018-11-25 22:16:31197215591277943DESCEND
2018-11-25 22:17:31165176497678145CRUISE
2018-11-25 22:18:31149159431078926DESCEND
2018-11-25 22:19:312527416679636TAXI TO THE GATE
2018-11-25 22:20:3167416680246TAXI TO THE GATE
2018-11-25 22:21:3100416680546TAXI TO THE GATE
2018-11-25 22:22:3100416680586TAXI TO THE GATE
2018-11-25 22:23:3100416680586TAXI TO THE GATE
2018-11-25 22:24:3100416680586TAXI TO THE GATE


Powered by Virtual Airlines Manager [v2.6.2]